createdAt,value
2017-11-12T00:01:14.740Z,46.22
2017-11-12T00:03:42.821Z,49.85
2017-11-12T00:06:10.613Z,47.72
2017-11-12T00:08:39.200Z,56.50
2017-11-12T00:11:07.708Z,56.63
2017-11-12T00:13:35.395Z,53.33
2017-11-12T00:16:03.067Z,50.10
2017-11-12T00:18:30.830Z,55.45
2017-11-12T00:20:58.388Z,58.25
2017-11-12T00:23:26.139Z,48.03
2017-11-12T00:25:53.727Z,43.05
2017-11-12T00:28:22.056Z,50.28
2017-11-12T00:30:49.667Z,49.55
2017-11-12T00:33:17.240Z,50.78
2017-11-12T00:35:44.820Z,44.50
2017-11-12T00:38:13.177Z,49.65
2017-11-12T00:40:40.733Z,49.75
2017-11-12T00:43:08.304Z,52.62
2017-11-12T00:45:35.956Z,49.55
2017-11-12T00:48:03.615Z,46.10
2017-11-12T00:50:31.185Z,56.97
2017-11-12T00:52:58.739Z,43.63
2017-11-12T00:55:26.396Z,50.38
2017-11-12T00:57:53.996Z,54.33
2017-11-12T01:00:22.343Z,43.67
2017-11-12T01:02:49.944Z,51.78
2017-11-12T01:05:18.269Z,48.08
2017-11-12T01:07:45.839Z,44.53
2017-11-12T01:10:13.411Z,45.17
2017-11-12T01:12:40.983Z,43.00
2017-11-12T01:15:08.585Z,50.92
2017-11-12T01:17:36.224Z,43.20
2017-11-12T01:20:03.783Z,44.55
2017-11-12T01:22:32.230Z,40.12
2017-11-12T01:25:00.597Z,43.70
2017-11-12T01:27:28.180Z,39.67
2017-11-12T01:29:55.768Z,36.80
2017-11-12T01:32:24.101Z,42.40
2017-11-12T01:34:51.680Z,48.65
2017-11-12T01:37:19.310Z,37.42
2017-11-12T01:39:46.951Z,39.63
2017-11-12T01:42:15.303Z,37.53
2017-11-12T01:44:43.629Z,39.92
2017-11-12T01:47:11.211Z,43.13
2017-11-12T01:49:38.772Z,42.78
2017-11-12T01:52:06.363Z,37.15
2017-11-12T01:54:33.922Z,44.55
2017-11-12T01:57:01.503Z,44.00
2017-11-12T01:59:29.105Z,39.47
2017-11-12T02:01:56.675Z,35.33
2017-11-12T02:04:24.223Z,33.95
2017-11-12T02:06:51.805Z,36.55
2017-11-12T02:09:19.400Z,39.47
2017-11-12T02:11:46.955Z,33.95
2017-11-12T02:14:14.534Z,37.88
2017-11-12T02:16:42.224Z,35.53
2017-11-12T02:19:10.534Z,41.70
2017-11-12T02:21:38.101Z,35.47
2017-11-12T02:24:05.662Z,35.22
2017-11-12T02:26:33.243Z,37.38
2017-11-12T02:29:00.806Z,34.33
2017-11-12T02:31:28.372Z,39.55
2017-11-12T02:33:55.930Z,30.25
2017-11-12T02:36:23.517Z,34.95
2017-11-12T02:38:51.221Z,37.17
2017-11-12T02:41:18.772Z,36.63
2017-11-12T02:43:46.334Z,40.97
2017-11-12T02:46:14.660Z,43.03
2017-11-12T02:48:42.231Z,31.15
2017-11-12T02:51:09.789Z,35.58
2017-11-12T02:53:37.336Z,38.53
2017-11-12T02:56:04.911Z,35.00
2017-11-12T02:58:32.477Z,34.20
2017-11-12T03:01:00.061Z,37.17
2017-11-12T03:03:27.627Z,39.88
2017-11-12T03:05:55.980Z,34.42
2017-11-12T03:08:23.561Z,39.67
2017-11-12T03:10:51.224Z,38.45
2017-11-12T03:13:18.805Z,36.78
2017-11-12T03:15:47.229Z,30.95
2017-11-12T03:18:14.834Z,32.83
2017-11-12T03:20:42.398Z,34.08
2017-11-12T03:23:09.991Z,31.33
2017-11-12T03:25:37.552Z,31.50
2017-11-12T03:28:05.116Z,28.90
2017-11-12T03:30:32.764Z,28.48
2017-11-12T03:33:01.079Z,37.95
2017-11-12T03:35:28.681Z,31.15
2017-11-12T03:37:56.231Z,33.90
2017-11-12T03:40:23.814Z,36.10
2017-11-12T03:42:52.156Z,38.83
2017-11-12T03:45:19.754Z,38.15
2017-11-12T03:47:47.524Z,32.25
2017-11-12T03:50:15.845Z,34.53
2017-11-12T03:52:43.406Z,38.78
2017-11-12T03:55:11.008Z,42.78
2017-11-12T03:57:38.574Z,34.22
2017-11-12T04:00:06.147Z,33.70
2017-11-12T04:02:33.730Z,39.83
2017-11-12T04:05:02.053Z,38.88
2017-11-12T04:07:29.716Z,33.10
2017-11-12T04:09:57.299Z,38.78
2017-11-12T04:12:24.895Z,37.38
2017-11-12T04:14:53.209Z,32.67
2017-11-12T04:17:20.803Z,37.55
2017-11-12T04:19:48.369Z,32.78
2017-11-12T04:22:16.006Z,31.65
2017-11-12T04:24:43.573Z,33.80
2017-11-12T04:27:11.126Z,37.35
2017-11-12T04:29:38.723Z,32.50
2017-11-12T04:32:06.641Z,34.30
2017-11-12T04:34:34.183Z,34.03
2017-11-12T04:37:02.530Z,30.60
2017-11-12T04:39:30.101Z,30.30
2017-11-12T04:41:57.677Z,27.60
2017-11-12T04:44:26.004Z,32.15
2017-11-12T04:46:53.780Z,29.55
2017-11-12T04:49:21.342Z,27.65
2017-11-12T04:51:48.898Z,25.30
2017-11-12T04:54:16.487Z,30.62
2017-11-12T04:56:44.108Z,23.25
2017-11-12T04:59:11.719Z,30.00
2017-11-12T05:01:39.287Z,32.17
2017-11-12T05:04:06.885Z,34.05
2017-11-12T05:06:34.456Z,24.30
2017-11-12T05:09:02.052Z,21.77
2017-11-12T05:11:29.635Z,25.00
2017-11-12T05:13:57.192Z,26.05
2017-11-12T05:16:24.762Z,22.95
2017-11-12T05:18:53.207Z,26.40
2017-11-12T05:21:20.762Z,21.67
2017-11-12T05:23:48.324Z,22.67
2017-11-12T05:26:16.027Z,19.65
2017-11-12T05:28:43.614Z,20.55
2017-11-12T05:31:11.176Z,23.00
2017-11-12T05:33:39.499Z,20.70
2017-11-12T05:36:07.071Z,23.10
2017-11-12T05:38:34.688Z,22.83
2017-11-12T05:41:02.231Z,22.37
2017-11-12T05:43:30.599Z,22.05
2017-11-12T05:45:58.170Z,20.25
2017-11-12T05:48:25.759Z,25.23
2017-11-12T05:50:53.388Z,20.40
2017-11-12T05:53:20.956Z,25.45
2017-11-12T05:55:48.523Z,20.02
2017-11-12T05:58:16.869Z,22.73
2017-11-12T06:00:44.440Z,24.37
2017-11-12T06:03:12.766Z,19.33
2017-11-12T06:05:40.338Z,29.27
2017-11-12T06:08:07.911Z,22.00
2017-11-12T06:10:35.548Z,23.45
2017-11-12T06:13:03.904Z,22.37
2017-11-12T06:15:32.235Z,20.35
2017-11-12T06:17:59.818Z,22.27
2017-11-12T06:20:27.399Z,18.55
2017-11-12T06:22:54.999Z,19.05
2017-11-12T06:25:22.559Z,23.70
2017-11-12T06:27:50.110Z,19.80
2017-11-12T06:30:18.550Z,18.27
2017-11-12T06:32:46.098Z,17.83
2017-11-12T06:35:13.676Z,19.67
2017-11-12T06:37:41.260Z,17.25
2017-11-12T06:40:08.835Z,23.00
2017-11-12T06:42:37.178Z,17.00
2017-11-12T06:45:04.763Z,17.37
2017-11-12T06:47:32.328Z,15.45
2017-11-12T06:50:00.811Z,16.23
2017-11-12T06:52:29.131Z,17.20
2017-11-12T06:54:56.715Z,15.90
2017-11-12T06:57:24.364Z,19.98
2017-11-12T06:59:51.925Z,20.98
2017-11-12T07:02:19.608Z,15.55
2017-11-12T07:04:47.182Z,15.60
2017-11-12T07:07:14.759Z,17.40
2017-11-12T07:09:42.335Z,23.08
2017-11-12T07:12:10.662Z,16.87
2017-11-12T07:14:38.411Z,17.15
2017-11-12T07:17:05.994Z,15.48
2017-11-12T07:19:33.562Z,19.92
2017-11-12T07:22:01.150Z,22.65
2017-11-12T07:24:28.730Z,18.75
2017-11-12T07:26:57.068Z,19.35
2017-11-12T07:29:24.656Z,25.85
2017-11-12T07:31:52.213Z,13.88
2017-11-12T07:34:19.795Z,23.25
2017-11-12T07:36:48.158Z,21.58
2017-11-12T07:39:15.727Z,20.98
2017-11-12T07:41:43.311Z,14.50
2017-11-12T07:44:11.656Z,17.73
2017-11-12T07:46:39.228Z,15.95
2017-11-12T07:49:06.822Z,16.70
2017-11-12T07:51:34.383Z,22.40
2017-11-12T07:54:01.944Z,18.25
2017-11-12T07:56:29.561Z,18.95
2017-11-12T07:58:57.100Z,16.42
2017-11-12T08:01:24.719Z,15.85
2017-11-12T08:03:53.148Z,15.00
2017-11-12T08:06:20.887Z,18.87
2017-11-12T08:08:48.625Z,15.57
2017-11-12T08:11:16.948Z,21.30
2017-11-12T08:13:44.539Z,14.45
2017-11-12T08:16:12.986Z,16.23
2017-11-12T08:18:40.578Z,16.20
2017-11-12T08:21:08.164Z,17.23
2017-11-12T08:23:35.716Z,15.25
2017-11-12T08:26:03.409Z,16.62
2017-11-12T08:28:31.789Z,18.40
2017-11-12T08:31:00.184Z,20.88
2017-11-12T08:33:28.307Z,20.55
2017-11-12T08:35:55.885Z,15.25
2017-11-12T08:38:23.478Z,14.15
2017-11-12T08:40:51.812Z,18.12
2017-11-12T08:43:19.409Z,15.45
2017-11-12T08:45:47.751Z,18.27
2017-11-12T08:48:16.093Z,14.00
2017-11-12T08:50:43.686Z,16.85
2017-11-12T08:53:11.243Z,19.20
2017-11-12T08:55:38.835Z,18.17
2017-11-12T08:58:06.428Z,21.90
2017-11-12T09:00:34.011Z,22.95
2017-11-12T09:03:01.631Z,20.70
2017-11-12T09:05:29.213Z,20.73
2017-11-12T09:07:56.813Z,17.37
2017-11-12T09:10:24.403Z,19.58
2017-11-12T09:12:52.780Z,24.20
2017-11-12T09:15:21.117Z,29.58
2017-11-12T09:17:48.712Z,12.90
2017-11-12T09:20:17.127Z,8.85
2017-11-12T09:22:44.732Z,9.48
2017-11-12T09:25:13.088Z,12.35
2017-11-12T09:27:40.668Z,8.02
2017-11-12T09:30:08.363Z,7.12
2017-11-12T09:32:36.086Z,8.85
2017-11-12T09:35:03.663Z,13.50
2017-11-12T09:37:31.239Z,8.30
2017-11-12T09:39:58.824Z,10.90
2017-11-12T09:42:26.386Z,9.93
2017-11-12T09:44:55.829Z,12.45
2017-11-12T09:47:23.415Z,10.25
2017-11-12T09:49:51.007Z,12.37
2017-11-12T09:52:18.591Z,10.60
2017-11-12T09:54:46.172Z,7.05
2017-11-12T09:57:13.761Z,11.65
2017-11-12T09:59:41.368Z,9.40
2017-11-12T10:02:08.998Z,11.20
2017-11-12T10:04:37.447Z,13.23
2017-11-12T10:07:05.047Z,10.10
2017-11-12T10:09:32.626Z,15.00
2017-11-12T10:12:00.238Z,7.22
2017-11-12T10:14:27.785Z,9.07
2017-11-12T10:16:55.745Z,9.48
2017-11-12T10:19:23.483Z,11.68
2017-11-12T10:21:51.064Z,7.50
2017-11-12T10:24:18.667Z,10.05
2017-11-12T10:26:47.048Z,12.37
2017-11-12T10:29:15.413Z,10.63
2017-11-12T10:31:43.065Z,10.48
2017-11-12T10:34:10.802Z,9.65
2017-11-12T10:36:39.178Z,8.90
2017-11-12T10:39:06.767Z,9.23
2017-11-12T10:41:34.365Z,10.57
2017-11-12T10:44:02.710Z,9.50
2017-11-12T10:46:30.291Z,9.20
2017-11-12T10:48:57.897Z,10.98
2017-11-12T10:51:25.469Z,11.43
2017-11-12T10:53:53.093Z,11.98
2017-11-12T10:56:21.414Z,11.02
2017-11-12T10:58:49.174Z,8.80
2017-11-12T11:01:16.780Z,8.05
2017-11-12T11:03:44.368Z,9.18
2017-11-12T11:06:12.710Z,7.10
2017-11-12T11:08:40.362Z,8.07
2017-11-12T11:11:07.937Z,7.05
2017-11-12T11:13:35.516Z,9.23
2017-11-12T11:16:03.883Z,9.95
2017-11-12T11:18:31.452Z,11.07
2017-11-12T11:20:59.065Z,6.60
2017-11-12T11:23:26.636Z,9.98
2017-11-12T11:25:54.278Z,8.98
2017-11-12T11:28:21.837Z,6.15
2017-11-12T11:30:49.410Z,12.90
2017-11-12T11:33:16.992Z,8.02
2017-11-12T11:35:44.711Z,6.32
2017-11-12T11:38:13.056Z,6.65
2017-11-12T11:40:41.411Z,6.32
2017-11-12T11:43:08.972Z,7.93
2017-11-12T11:45:36.696Z,7.37
2017-11-12T11:48:04.290Z,10.43
2017-11-12T11:50:31.866Z,15.32
2017-11-12T11:52:59.666Z,9.75
2017-11-12T11:55:27.276Z,9.73
2017-11-12T11:57:55.016Z,9.23
2017-11-12T12:00:22.620Z,10.00
2017-11-12T12:02:50.996Z,9.73
2017-11-12T12:05:19.412Z,10.13
2017-11-12T12:07:47.127Z,13.60
2017-11-12T12:10:14.733Z,15.25
2017-11-12T12:12:42.303Z,17.05
2017-11-12T12:15:10.133Z,12.35
2017-11-12T12:17:38.459Z,13.27
2017-11-12T12:20:06.071Z,15.77
2017-11-12T12:22:34.413Z,14.68
2017-11-12T12:25:02.020Z,17.35
2017-11-12T12:27:30.399Z,11.63
2017-11-12T12:29:57.995Z,12.55
2017-11-12T12:32:25.607Z,14.82
2017-11-12T12:34:53.325Z,15.00
2017-11-12T12:37:20.941Z,15.50
2017-11-12T12:39:48.522Z,14.98
2017-11-12T12:42:16.910Z,16.20
2017-11-12T12:44:44.513Z,16.83
2017-11-12T12:47:12.108Z,12.27
2017-11-12T12:49:39.685Z,14.90
2017-11-12T12:52:08.066Z,10.30
2017-11-12T12:54:36.631Z,12.32
2017-11-12T12:57:04.220Z,13.70
2017-11-12T12:59:31.861Z,7.82
2017-11-12T13:02:00.225Z,11.93
2017-11-12T13:04:27.819Z,10.63
2017-11-12T13:06:57.111Z,12.87
2017-11-12T13:09:24.707Z,12.90
2017-11-12T13:11:52.262Z,10.70
2017-11-12T13:14:20.803Z,8.80
2017-11-12T13:16:48.380Z,10.10
2017-11-12T13:19:15.973Z,12.03
2017-11-12T13:21:43.727Z,8.07
2017-11-12T13:24:11.340Z,15.83
2017-11-12T13:26:39.027Z,8.65
2017-11-12T13:29:06.623Z,11.18
2017-11-12T13:31:34.218Z,10.47
2017-11-12T13:34:01.869Z,15.27
2017-11-12T13:36:29.459Z,20.23
2017-11-12T13:38:57.069Z,10.30
2017-11-12T13:41:24.668Z,15.10
2017-11-12T13:43:52.259Z,8.43
2017-11-12T13:46:20.729Z,8.23
2017-11-12T13:48:48.301Z,15.63
2017-11-12T13:51:16.736Z,6.70
2017-11-12T13:53:44.329Z,6.70
2017-11-12T13:56:11.991Z,11.30
2017-11-12T13:58:39.568Z,9.60
2017-11-12T14:01:07.178Z,10.30
2017-11-12T14:03:34.794Z,9.23
2017-11-12T14:06:03.151Z,9.93
2017-11-12T14:08:30.733Z,9.33
2017-11-12T14:10:59.092Z,14.15
2017-11-12T14:13:26.664Z,19.60
2017-11-12T14:15:54.266Z,17.77
2017-11-12T14:18:21.854Z,18.17
2017-11-12T14:20:49.497Z,15.75
2017-11-12T14:23:17.117Z,18.25
2017-11-12T14:25:45.464Z,15.32
2017-11-12T14:28:13.072Z,9.02
2017-11-12T14:30:41.438Z,6.40
2017-11-12T14:33:09.100Z,6.70
2017-11-12T14:35:37.450Z,6.47
2017-11-12T14:38:05.140Z,4.55
2017-11-12T14:40:32.706Z,3.42
2017-11-12T14:43:00.362Z,3.10
2017-11-12T14:45:27.961Z,4.32
2017-11-12T14:47:55.545Z,8.00
2017-11-12T14:50:23.130Z,8.27
2017-11-12T14:52:50.696Z,6.65
2017-11-12T14:55:18.316Z,4.25
2017-11-12T14:57:45.916Z,6.75
2017-11-12T15:00:13.558Z,7.10
2017-11-12T15:02:41.204Z,5.20
2017-11-12T15:05:08.798Z,5.43
2017-11-12T15:07:36.380Z,4.93
2017-11-12T15:10:03.966Z,4.85
2017-11-12T15:12:31.536Z,6.28
2017-11-12T15:14:59.164Z,6.30
2017-11-12T15:17:27.547Z,5.68
2017-11-12T15:19:55.885Z,7.15
2017-11-12T15:22:23.510Z,6.03
2017-11-12T15:24:51.108Z,10.07
2017-11-12T15:27:18.678Z,9.68
2017-11-12T15:29:46.299Z,6.95
2017-11-12T15:32:14.631Z,9.95
2017-11-12T15:34:42.200Z,9.80
2017-11-12T15:37:10.138Z,12.00
2017-11-12T15:39:37.722Z,9.60
2017-11-12T15:42:06.084Z,12.35
2017-11-12T15:44:33.679Z,13.50
2017-11-12T15:47:01.253Z,9.45
2017-11-12T15:49:28.843Z,18.02
2017-11-12T15:51:57.202Z,12.48
2017-11-12T15:54:25.023Z,12.37
2017-11-12T15:56:52.659Z,16.62
2017-11-12T15:59:21.034Z,22.30
2017-11-12T16:01:49.487Z,15.77
2017-11-12T16:04:17.150Z,13.02
2017-11-12T16:06:44.804Z,17.02
2017-11-12T16:09:12.386Z,9.15
2017-11-12T16:11:40.004Z,12.48
2017-11-12T16:14:07.885Z,10.25
2017-11-12T16:16:35.431Z,7.00
2017-11-12T16:19:03.055Z,8.90
2017-11-12T16:21:30.640Z,14.00
2017-11-12T16:23:59.037Z,8.48
2017-11-12T16:26:26.596Z,8.30
2017-11-12T16:28:54.259Z,9.35
2017-11-12T16:31:21.831Z,7.07
2017-11-12T16:33:49.440Z,5.90
2017-11-12T16:36:17.051Z,7.10
2017-11-12T16:38:44.632Z,9.25
2017-11-12T16:41:12.223Z,7.20
2017-11-12T16:43:39.844Z,6.32
2017-11-12T16:46:07.603Z,7.90
2017-11-12T16:48:35.181Z,6.80
2017-11-12T16:51:02.769Z,7.00
2017-11-12T16:53:30.484Z,6.85
2017-11-12T16:55:58.070Z,6.85
2017-11-12T16:58:25.619Z,5.95
2017-11-12T17:00:53.196Z,6.53
2017-11-12T17:03:21.038Z,5.72
2017-11-12T17:05:48.789Z,7.43
2017-11-12T17:08:17.147Z,11.20
2017-11-12T17:10:44.763Z,7.12
2017-11-12T17:13:12.346Z,6.62
2017-11-12T17:15:40.017Z,6.62
2017-11-12T17:18:07.578Z,5.90
2017-11-12T17:20:35.157Z,8.80
2017-11-12T17:23:02.817Z,8.07
2017-11-12T17:25:30.470Z,8.63
2017-11-12T17:27:58.037Z,11.73
2017-11-12T17:30:25.635Z,13.20
2017-11-12T17:32:54.000Z,13.35
2017-11-12T17:35:21.619Z,9.00
2017-11-12T17:37:49.284Z,14.73
2017-11-12T17:40:17.673Z,9.05
2017-11-12T17:42:49.758Z,12.77
2017-11-12T17:45:28.512Z,11.57
2017-11-12T17:47:56.367Z,14.57
2017-11-12T17:50:23.951Z,15.98
2017-11-12T17:52:51.573Z,15.70
2017-11-12T17:55:19.172Z,12.00
2017-11-12T17:57:46.765Z,11.30
2017-11-12T18:00:14.332Z,10.00
2017-11-12T18:02:42.080Z,14.15
2017-11-12T18:05:09.686Z,8.90
2017-11-12T18:07:37.262Z,13.40
2017-11-12T18:10:04.862Z,10.10
2017-11-12T18:12:32.508Z,14.45
2017-11-12T18:15:00.094Z,15.65
2017-11-12T18:17:27.692Z,9.20
2017-11-12T18:19:56.027Z,8.23
2017-11-12T18:22:23.622Z,8.23
2017-11-12T18:24:51.326Z,12.20
2017-11-12T18:27:18.925Z,8.57
2017-11-12T18:29:46.668Z,12.25
2017-11-12T18:32:14.228Z,9.90
2017-11-12T18:34:41.973Z,9.57
2017-11-12T18:37:09.576Z,8.20
2017-11-12T18:39:37.908Z,17.58
2017-11-12T18:42:05.804Z,9.98
2017-11-12T18:44:33.384Z,10.35
2017-11-12T18:47:00.970Z,16.77
2017-11-12T18:49:29.327Z,9.05
2017-11-12T18:51:56.925Z,7.47
2017-11-12T18:54:24.528Z,8.27
2017-11-12T18:57:02.925Z,6.65
2017-11-12T19:02:35.724Z,16.17
2017-11-12T19:05:04.095Z,13.75
2017-11-12T19:07:51.552Z,7.97
2017-11-12T19:10:19.250Z,7.93
2017-11-12T19:12:46.850Z,7.82
2017-11-12T19:15:14.928Z,7.07
2017-11-12T19:17:45.160Z,6.05
2017-11-12T19:20:19.440Z,9.13
2017-11-12T19:22:50.955Z,7.45
2017-11-12T19:25:19.668Z,6.45
2017-11-12T19:27:47.320Z,10.50
2017-11-12T19:30:15.549Z,10.90
2017-11-12T19:32:43.178Z,10.15
2017-11-12T19:35:10.802Z,10.75
2017-11-12T19:37:39.124Z,9.95
2017-11-12T19:40:06.739Z,10.20
2017-11-12T19:42:35.074Z,7.55
2017-11-12T19:45:03.287Z,7.12
2017-11-12T19:47:31.654Z,8.68
2017-11-12T19:50:00.038Z,11.20
2017-11-12T19:52:27.767Z,8.85
2017-11-12T19:54:55.762Z,9.65
2017-11-12T19:57:24.208Z,9.60
2017-11-12T19:59:52.069Z,16.90
2017-11-12T20:02:19.679Z,7.87
2017-11-12T20:04:47.563Z,7.78
2017-11-12T20:07:16.365Z,13.48
2017-11-12T20:09:44.880Z,8.25
2017-11-12T20:12:12.836Z,8.38
2017-11-12T20:14:40.452Z,8.95
2017-11-12T20:17:08.105Z,9.23
2017-11-12T20:19:35.684Z,8.70
2017-11-12T20:22:03.279Z,10.30
2017-11-12T20:24:30.854Z,9.32
2017-11-12T20:26:58.615Z,11.00
2017-11-12T20:29:26.263Z,7.03
2017-11-12T20:31:54.620Z,9.27
2017-11-12T20:34:23.155Z,9.68
2017-11-12T20:36:50.727Z,8.77
2017-11-12T20:39:18.535Z,10.80
2017-11-12T20:41:46.176Z,9.10
2017-11-12T20:44:13.858Z,8.65
2017-11-12T20:46:41.486Z,8.88
2017-11-12T20:49:09.090Z,8.98
2017-11-12T20:51:37.514Z,13.68
2017-11-12T20:54:05.165Z,12.30
2017-11-12T20:56:32.815Z,10.50
2017-11-12T20:59:01.166Z,8.55
2017-11-12T21:01:29.184Z,11.57
2017-11-12T21:03:57.597Z,12.52
2017-11-12T21:06:25.906Z,9.23
2017-11-12T21:08:53.491Z,9.85
2017-11-12T21:11:22.373Z,9.15
2017-11-12T21:13:50.779Z,9.27
2017-11-12T21:16:18.373Z,10.88
2017-11-12T21:18:45.997Z,9.35
2017-11-12T21:21:33.196Z,10.10
2017-11-12T21:24:05.474Z,12.05
2017-11-12T21:26:37.324Z,11.02
2017-11-12T21:29:16.717Z,10.07
2017-11-12T21:31:44.359Z,10.43
2017-11-12T21:34:29.942Z,13.15
2017-11-12T21:37:12.491Z,10.40
2017-11-12T21:39:40.226Z,11.27
2017-11-12T21:44:58.833Z,9.77
2017-11-12T21:47:26.419Z,10.25
2017-11-12T21:49:54.021Z,9.95
2017-11-12T21:52:22.385Z,9.38
2017-11-12T21:54:50.800Z,12.65
2017-11-12T21:57:18.388Z,10.13
2017-11-12T21:59:45.981Z,9.63
2017-11-12T22:02:13.801Z,13.13
2017-11-12T22:04:41.360Z,12.93
2017-11-12T22:07:08.960Z,11.00
2017-11-12T22:09:36.522Z,13.15
2017-11-12T22:12:04.168Z,9.90
2017-11-12T22:14:32.538Z,13.00
2017-11-12T22:17:00.096Z,10.70
2017-11-12T22:19:27.673Z,9.52
2017-11-12T22:21:56.049Z,11.57
2017-11-12T22:24:34.358Z,9.82
2017-11-12T22:27:02.528Z,9.55
2017-11-12T22:29:30.140Z,10.73
2017-11-12T22:31:57.712Z,11.43
2017-11-12T22:34:25.343Z,10.50
2017-11-12T22:36:53.680Z,8.88
2017-11-12T22:39:21.328Z,10.23
2017-11-12T22:41:49.321Z,10.25
2017-11-12T22:44:17.967Z,9.15
2017-11-12T22:46:45.565Z,9.13
2017-11-12T22:49:13.131Z,9.10
2017-11-12T22:51:40.691Z,8.02
2017-11-12T22:54:08.290Z,8.40
2017-11-12T22:56:36.740Z,7.95
2017-11-12T22:59:04.357Z,10.60
2017-11-12T23:01:31.947Z,7.70
2017-11-12T23:03:59.512Z,7.30
2017-11-12T23:06:27.145Z,7.45
2017-11-12T23:08:54.696Z,6.78
2017-11-12T23:11:22.278Z,7.15
2017-11-12T23:13:49.852Z,9.50
2017-11-12T23:16:17.443Z,6.53
2017-11-12T23:18:44.991Z,7.53
2017-11-12T23:21:12.551Z,5.37
2017-11-12T23:23:40.159Z,5.70
2017-11-12T23:26:08.457Z,6.22
2017-11-12T23:28:36.113Z,7.72
2017-11-12T23:31:03.689Z,5.97
2017-11-12T23:33:31.281Z,6.47
2017-11-12T23:35:58.839Z,4.87
2017-11-12T23:38:27.507Z,5.43
2017-11-12T23:40:55.086Z,5.43
2017-11-12T23:43:22.786Z,7.25
2017-11-12T23:45:51.305Z,5.82
2017-11-12T23:48:18.871Z,5.25
2017-11-12T23:50:56.351Z,7.05
2017-11-12T23:53:23.895Z,5.57
2017-11-12T23:55:52.256Z,8.32
2017-11-12T23:58:19.814Z,5.12
